Time;durP1;ratioP1;P1;durP2;ratioP2;P2;SDS_P1;SDS_P2;PMS_P1;PMS_P2;Temp;Humidity;BMP_temperature;BMP_pressure;BME280_temperature;BME280_humidity;BME280_pressure;Samples;Min_cycle;Max_cycle;Signal;HPM_P1;HPM_P2
2023/07/10 00:01:26;;;;;;;7.43;5.25;;;;;;;-143.21;62.44;71945.28;5108193;27;20212;-82
2023/07/10 00:03:53;;;;;;;7.38;5.28;;;;;;;-143.21;62.30;71947.25;5110956;27;20196;-82
2023/07/10 00:06:21;;;;;;;16.73;5.75;;;;;;;-143.21;63.12;71963.13;5109292;27;20214;-82
2023/07/10 00:08:47;;;;;;;11.98;5.90;;;;;;;-143.21;63.81;71971.06;5109663;27;20196;-81
2023/07/10 00:11:17;;;;;;;10.30;5.72;;;;;;;-143.21;63.99;71978.97;5108875;27;20208;-82
2023/07/10 00:13:44;;;;;;;15.15;6.35;;;;;;;-143.21;64.18;71967.09;5109299;28;20222;-81
2023/07/10 00:16:16;;;;;;;14.15;6.80;;;;;;;-143.21;64.49;71982.94;5108977;27;20208;-81
2023/07/10 00:18:43;;;;;;;10.52;5.88;;;;;;;-143.21;64.20;71973.03;5108140;27;20543;-81
2023/07/10 00:21:10;;;;;;;9.43;5.85;;;;;;;-143.21;64.72;71969.06;5105837;27;20208;-81
2023/07/10 00:23:37;;;;;;;12.60;6.30;;;;;;;-143.21;64.56;71975.00;5107474;27;20204;-79
2023/07/10 00:26:11;;;;;;;11.70;5.65;;;;;;;-143.21;65.09;71986.91;5108308;27;20215;-81
2023/07/10 00:28:37;;;;;;;14.32;6.72;;;;;;;-143.21;65.33;71998.81;5108585;27;20203;-81
2023/07/10 00:31:04;;;;;;;11.98;6.00;;;;;;;-143.21;65.14;72000.78;5111156;27;20669;-81
2023/07/10 00:33:33;;;;;;;14.43;5.50;;;;;;;-143.21;64.81;71998.81;5110664;27;20238;-82
2023/07/10 00:36:00;;;;;;;8.02;5.55;;;;;;;-143.21;64.70;72006.75;5108762;27;20231;-82
2023/07/10 00:38:30;;;;;;;7.50;5.47;;;;;;;-143.21;65.25;72018.63;5108776;27;20211;-82
2023/07/10 00:41:00;;;;;;;10.70;5.88;;;;;;;-143.21;65.80;72014.69;5109992;27;20200;-83
2023/07/10 00:43:32;;;;;;;10.45;5.75;;;;;;;-143.21;65.38;72018.63;5108762;27;20316;-82
2023/07/10 00:46:09;;;;;;;6.40;5.22;;;;;;;-143.21;65.82;72034.50;5109102;27;20570;-82
2023/07/10 00:48:44;;;;;;;12.95;5.40;;;;;;;-143.21;65.80;72020.63;5108909;27;20196;-82
2023/07/10 00:51:17;;;;;;;19.15;5.40;;;;;;;-143.21;66.19;72026.56;5108138;28;21078;-82
2023/07/10 00:53:46;;;;;;;9.05;5.47;;;;;;;-143.21;66.16;72024.59;5109269;28;20542;-82
2023/07/10 00:56:17;;;;;;;8.90;5.78;;;;;;;-143.21;66.13;72036.50;5108546;27;20284;-82
2023/07/10 00:58:46;;;;;;;10.57;5.60;;;;;;;-143.21;66.30;72046.41;5110748;27;20192;-82
2023/07/10 01:01:14;;;;;;;10.75;5.57;;;;;;;-143.21;66.69;72054.34;5107968;27;21014;-81
2023/07/10 01:03:44;;;;;;;11.52;5.78;;;;;;;-143.21;66.37;72050.38;5111589;27;20232;-81
2023/07/10 01:06:15;;;;;;;8.98;5.60;;;;;;;-143.21;66.77;72058.31;5107334;27;20269;-81
2023/07/10 01:08:45;;;;;;;14.70;6.05;;;;;;;-143.21;66.88;72052.34;5107024;27;20625;-81
2023/07/10 01:11:11;;;;;;;11.30;5.95;;;;;;;-143.21;67.42;72066.22;5107530;27;20204;-80
2023/07/10 01:13:41;;;;;;;10.93;5.85;;;;;;;-143.21;67.36;72064.25;5107897;27;20265;-81
2023/07/10 01:16:09;;;;;;;8.90;6.07;;;;;;;-143.21;67.23;72060.28;5110403;27;20200;-81
2023/07/10 01:18:38;;;;;;;9.77;6.45;;;;;;;-143.21;67.42;72058.31;5108030;27;20295;-80
2023/07/10 01:21:13;;;;;;;13.75;6.40;;;;;;;-143.21;67.73;72064.25;5111058;27;20214;-79
2023/07/10 01:23:40;;;;;;;11.18;6.05;;;;;;;-143.21;67.53;72062.25;5108132;27;20203;-80
2023/07/10 01:26:07;;;;;;;7.05;5.47;;;;;;;-143.21;67.62;72062.25;5107548;27;20236;-80
2023/07/10 01:28:34;;;;;;;7.55;5.28;;;;;;;-143.21;67.53;72070.19;5107998;27;20204;-81
2023/07/10 01:31:05;;;;;;;10.07;4.95;;;;;;;-143.21;67.16;72074.16;5112697;27;20203;-80
2023/07/10 01:33:37;;;;;;;11.48;5.07;;;;;;;-143.21;66.94;72078.13;5106373;27;20712;-81
2023/07/10 01:36:05;;;;;;;16.90;5.20;;;;;;;-143.21;67.22;72080.13;5105880;28;20260;-82
2023/07/10 01:38:38;;;;;;;7.88;4.50;;;;;;;-143.21;67.00;72074.16;5105690;27;20200;-82
2023/07/10 01:41:17;;;;;;;8.77;4.68;;;;;;;-143.21;67.24;72070.19;5111525;27;20192;-82
2023/07/10 01:43:43;;;;;;;11.70;5.55;;;;;;;-143.21;67.55;72072.19;5107814;28;20279;-82
2023/07/10 01:46:21;;;;;;;8.23;4.63;;;;;;;-143.21;67.48;72082.09;5110348;27;20211;-82
2023/07/10 01:48:51;;;;;;;14.45;5.00;;;;;;;-143.21;67.02;72082.09;5108850;27;20215;-82
2023/07/10 01:51:19;;;;;;;12.85;4.93;;;;;;;-143.21;66.83;72082.09;5107551;27;20208;-80
2023/07/10 01:53:47;;;;;;;11.25;4.90;;;;;;;-143.21;66.77;72090.03;5110846;27;20231;-80
2023/07/10 01:56:17;;;;;;;7.13;5.43;;;;;;;-143.21;66.75;72090.03;5106918;27;20215;-81
2023/07/10 01:58:44;;;;;;;15.88;5.43;;;;;;;-143.21;66.45;72088.03;5108842;27;20670;-81
2023/07/10 02:01:11;;;;;;;6.78;5.22;;;;;;;-143.21;66.43;72086.06;5107678;27;20211;-81
2023/07/10 02:03:38;;;;;;;8.20;4.78;;;;;;;-143.21;66.74;72101.94;5107314;27;20199;-81
2023/07/10 02:06:05;;;;;;;11.68;5.15;;;;;;;-143.21;67.37;72115.81;5107842;28;20234;-81
2023/07/10 02:08:32;;;;;;;9.60;5.10;;;;;;;-143.21;67.41;72105.91;5106271;27;20204;-81
2023/07/10 02:11:00;;;;;;;9.73;5.10;;;;;;;-143.21;67.44;72107.88;5108970;27;20211;-80
2023/07/10 02:13:27;;;;;;;7.97;4.80;;;;;;;-143.21;67.24;72113.81;5106431;27;20801;-79
2023/07/10 02:15:54;;;;;;;7.45;4.97;;;;;;;-143.21;67.61;72119.78;5107105;27;20204;-80
2023/07/10 02:18:21;;;;;;;8.90;5.10;;;;;;;-143.21;67.84;72133.66;5110820;27;20674;-80
2023/07/10 02:20:50;;;;;;;9.63;5.32;;;;;;;-143.21;68.04;72135.63;5108299;28;20278;-80
2023/07/10 02:23:17;;;;;;;9.23;5.57;;;;;;;-143.21;68.14;72143.56;5109259;28;20638;-80
2023/07/10 02:25:44;;;;;;;9.95;5.45;;;;;;;-143.21;67.73;72141.59;5105545;28;20196;-81
2023/07/10 02:28:12;;;;;;;15.35;5.60;;;;;;;-143.21;67.91;72147.53;5105625;28;20215;-80
2023/07/10 02:30:39;;;;;;;10.35;5.40;;;;;;;-143.21;68.66;72153.47;5108911;28;20207;-81
2023/07/10 02:33:06;;;;;;;7.38;5.30;;;;;;;-143.21;68.75;72155.47;5110307;28;20203;-81
2023/07/10 02:35:33;;;;;;;7.18;5.47;;;;;;;-143.21;68.62;72161.41;5104350;28;20210;-80
2023/07/10 02:38:00;;;;;;;8.00;5.85;;;;;;;-143.21;68.67;72165.38;5107376;28;20192;-80
2023/07/10 02:40:27;;;;;;;14.32;5.70;;;;;;;-143.21;68.83;72177.28;5107355;28;20196;-81
2023/07/10 02:42:53;;;;;;;8.80;4.93;;;;;;;-143.21;69.20;72181.25;5110565;28;20645;-81
2023/07/10 02:45:21;;;;;;;9.20;5.95;;;;;;;-143.21;68.46;72179.25;5105000;28;20235;-81
2023/07/10 02:47:48;;;;;;;11.40;5.95;;;;;;;-143.21;68.42;72177.28;5107073;28;20196;-81
2023/07/10 02:50:15;;;;;;;10.35;5.38;;;;;;;-143.21;69.20;72185.22;5107832;28;20208;-81
2023/07/10 02:52:42;;;;;;;10.90;5.90;;;;;;;-143.21;69.13;72181.25;5106638;28;20948;-81
2023/07/10 02:55:09;;;;;;;9.93;5.30;;;;;;;-143.21;69.62;72195.13;5107339;27;20721;-81
2023/07/10 02:57:36;;;;;;;14.60;6.32;;;;;;;-143.21;69.63;72195.13;5113158;27;20211;-80
2023/07/10 03:00:04;;;;;;;13.57;6.07;;;;;;;-143.21;69.27;72195.13;5110933;27;20204;-81
2023/07/10 03:02:32;;;;;;;8.50;5.95;;;;;;;-143.21;68.88;72193.16;5112276;27;20666;-81
2023/07/10 03:05:00;;;;;;;11.90;5.63;;;;;;;-143.21;69.13;72203.06;5109149;27;20204;-81
2023/07/10 03:07:27;;;;;;;11.30;5.90;;;;;;;-143.21;69.82;72201.09;5114760;27;20203;-81
2023/07/10 03:09:53;;;;;;;12.80;5.70;;;;;;;-143.21;70.10;72214.97;5111648;27;20648;-81
2023/07/10 03:12:21;;;;;;;10.88;6.28;;;;;;;-143.21;70.21;72209.00;5110930;27;20211;-81
2023/07/10 03:14:48;;;;;;;14.50;5.90;;;;;;;-143.21;69.72;72201.09;5110826;27;21157;-81
2023/07/10 03:17:15;;;;;;;19.23;6.15;;;;;;;-143.21;70.06;72203.06;5110805;27;20215;-82
2023/07/10 03:19:43;;;;;;;9.77;5.43;;;;;;;-143.21;69.43;72207.03;5109918;27;20200;-82
2023/07/10 03:22:10;;;;;;;11.75;5.78;;;;;;;-143.21;69.18;72203.06;5110245;27;20199;-81
2023/07/10 03:24:37;;;;;;;12.57;6.25;;;;;;;-143.21;68.92;72203.06;5111113;27;20586;-82
2023/07/10 03:27:04;;;;;;;14.05;6.30;;;;;;;-143.21;69.42;72209.00;5114005;27;20219;-81
2023/07/10 03:29:31;;;;;;;13.00;6.35;;;;;;;-143.21;70.55;72218.94;5109549;27;20204;-82
2023/07/10 03:31:58;;;;;;;19.40;6.53;;;;;;;-143.21;70.16;72218.94;5112607;27;20199;-81
2023/07/10 03:34:24;;;;;;;21.00;7.00;;;;;;;-143.21;70.55;72218.94;5110203;27;20314;-82
2023/07/10 03:36:53;;;;;;;16.92;7.15;;;;;;;-143.21;70.44;72220.91;5110055;27;20235;-82
2023/07/10 03:39:20;;;;;;;18.52;6.43;;;;;;;-143.21;70.03;72216.94;5109278;27;21552;-81
2023/07/10 03:41:47;;;;;;;15.23;6.43;;;;;;;-143.21;69.89;72216.94;5110688;27;21078;-82
2023/07/10 03:44:14;;;;;;;17.30;6.40;;;;;;;-143.21;70.12;72214.97;5110983;28;20302;-82
2023/07/10 03:46:41;;;;;;;11.13;6.20;;;;;;;-143.21;69.71;72207.03;5100887;27;20294;-80
2023/07/10 03:49:08;;;;;;;17.35;6.50;;;;;;;-143.21;69.71;72214.97;5099831;27;20191;-81
2023/07/10 03:51:34;;;;;;;8.27;5.72;;;;;;;-143.21;69.04;72212.97;5107879;27;20906;-82
2023/07/10 03:54:03;;;;;;;10.10;6.07;;;;;;;-143.21;68.96;72211.00;5112686;27;20223;-82
2023/07/10 03:56:30;;;;;;;7.90;5.30;;;;;;;-143.21;68.76;72216.94;5110919;27;20211;-82
2023/07/10 03:58:56;;;;;;;10.77;6.10;;;;;;;-143.21;68.52;72211.00;5112772;27;20199;-82
2023/07/10 04:01:24;;;;;;;9.88;5.80;;;;;;;-143.21;68.78;72214.97;5107502;27;20298;-83
2023/07/10 04:03:51;;;;;;;12.65;6.22;;;;;;;-143.21;69.11;72220.91;5109182;27;20211;-81
2023/07/10 04:06:18;;;;;;;9.40;6.22;;;;;;;-143.21;69.33;72224.88;5106188;27;20196;-81
2023/07/10 04:08:47;;;;;;;9.88;6.72;;;;;;;-143.21;69.34;72216.94;5109300;27;20584;-81
2023/07/10 04:11:19;;;;;;;19.30;6.78;;;;;;;-143.21;69.29;72220.91;5112858;27;20203;-80
2023/07/10 04:13:46;;;;;;;12.90;6.40;;;;;;;-143.21;68.95;72211.00;5108829;27;20257;-80
2023/07/10 04:16:16;;;;;;;12.60;6.50;;;;;;;-143.21;68.96;72214.97;5109181;27;20208;-81
2023/07/10 04:18:44;;;;;;;11.68;6.30;;;;;;;-143.21;69.00;72216.94;5108646;27;21094;-80
2023/07/10 04:21:14;;;;;;;13.40;6.38;;;;;;;-143.21;68.91;72220.91;5108402;27;20207;-80
2023/07/10 04:23:41;;;;;;;12.68;6.60;;;;;;;-143.21;68.74;72214.97;5107855;27;20290;-81
2023/07/10 04:26:16;;;;;;;11.35;6.18;;;;;;;-143.21;68.87;72211.00;5107482;27;20211;-81
2023/07/10 04:28:44;;;;;;;13.68;5.97;;;;;;;-143.21;68.79;72207.03;5110132;27;20290;-81
2023/07/10 04:31:11;;;;;;;14.52;6.35;;;;;;;-143.21;68.96;72205.03;5108354;27;20753;-81
2023/07/10 04:33:38;;;;;;;11.55;6.25;;;;;;;-143.21;68.86;72199.09;5107659;27;20203;-80
2023/07/10 04:36:05;;;;;;;13.02;6.70;;;;;;;-143.21;68.95;72199.09;5108152;27;20693;-81
2023/07/10 04:38:31;;;;;;;13.98;6.72;;;;;;;-143.21;68.94;72197.13;5110472;27;20211;-80
2023/07/10 04:40:59;;;;;;;17.33;6.95;;;;;;;-143.21;68.81;72189.19;5110288;27;20200;-80
2023/07/10 04:43:30;;;;;;;9.63;6.47;;;;;;;-143.21;68.81;72177.28;5108368;27;20204;-80
2023/07/10 04:45:59;;;;;;;9.18;6.22;;;;;;;-143.21;68.98;72175.31;5107488;27;20207;-79
2023/07/10 04:48:26;;;;;;;13.57;7.07;;;;;;;-143.21;69.22;72169.34;5107320;27;20234;-80
2023/07/10 04:50:54;;;;;;;18.45;7.53;;;;;;;-143.21;68.82;72161.41;5109619;27;20196;-78
2023/07/10 04:53:22;;;;;;;16.45;6.72;;;;;;;-143.21;68.58;72153.47;5105107;27;20219;-78
2023/07/10 04:55:51;;;;;;;13.73;6.97;;;;;;;-143.21;68.44;72155.47;5109124;27;20315;-79
2023/07/10 04:58:19;;;;;;;15.95;6.45;;;;;;;-143.21;68.95;72149.53;5106521;28;20216;-79
2023/07/10 05:00:52;;;;;;;17.83;7.78;;;;;;;-143.21;69.14;72141.59;5110266;27;20208;-81
2023/07/10 05:03:19;;;;;;;13.63;7.75;;;;;;;-143.21;69.41;72143.56;5107673;27;20212;-81
2023/07/10 05:05:52;;;;;;;14.05;7.53;;;;;;;-143.21;69.59;72137.63;5108604;27;20655;-80
2023/07/10 05:08:19;;;;;;;12.10;6.68;;;;;;;-143.21;69.64;72127.72;5108654;27;20208;-81
2023/07/10 05:10:46;;;;;;;14.05;7.20;;;;;;;-143.21;69.03;72119.78;5113834;27;20211;-80
2023/07/10 05:13:12;;;;;;;13.07;6.25;;;;;;;-143.21;68.69;72117.78;5107063;27;20212;-81
2023/07/10 05:15:39;;;;;;;16.42;7.40;;;;;;;-143.21;68.67;72105.91;5106240;27;20227;-81
2023/07/10 05:18:07;;;;;;;12.57;7.18;;;;;;;-143.21;68.92;72099.94;5106264;27;20207;-81
2023/07/10 05:20:34;;;;;;;18.92;6.90;;;;;;;-143.21;68.85;72099.94;5108302;28;20200;-81
2023/07/10 05:23:01;;;;;;;20.35;7.47;;;;;;;-143.21;69.12;72097.97;5109572;27;20898;-82
2023/07/10 05:25:28;;;;;;;12.93;7.45;;;;;;;-143.21;69.50;72094.00;5105168;27;20596;-82
2023/07/10 05:27:55;;;;;;;13.63;7.65;;;;;;;-143.21;69.29;72086.06;5108233;27;20212;-80
2023/07/10 05:30:21;;;;;;;14.60;7.60;;;;;;;-143.21;69.63;72078.13;5109276;27;20196;-80
2023/07/10 05:32:49;;;;;;;15.07;7.32;;;;;;;-143.21;69.66;72072.19;5107213;27;20685;-82
2023/07/10 05:35:17;;;;;;;12.38;7.18;;;;;;;-143.21;69.47;72068.22;5108279;27;20607;-82
2023/07/10 05:37:44;;;;;;;12.43;7.30;;;;;;;-143.21;69.73;72058.31;5108369;28;20247;-83
2023/07/10 05:40:11;;;;;;;14.75;7.63;;;;;;;-143.21;69.43;72056.31;5108363;27;20656;-83
2023/07/10 05:42:39;;;;;;;15.18;8.15;;;;;;;-143.21;69.48;72050.38;5108417;27;20606;-84
2023/07/10 05:45:07;;;;;;;13.95;7.30;;;;;;;-143.21;69.24;72046.41;5107605;27;20200;-81
2023/07/10 05:47:34;;;;;;;13.10;8.38;;;;;;;-143.21;69.19;72038.47;5107509;28;20300;-81
2023/07/10 05:50:01;;;;;;;20.67;8.15;;;;;;;-143.21;68.99;72024.59;5108183;28;20572;-84
2023/07/10 05:52:29;;;;;;;17.05;8.95;;;;;;;-143.21;68.74;72018.63;5108831;27;20888;-83
2023/07/10 05:54:56;;;;;;;18.95;7.97;;;;;;;-143.21;68.00;72010.72;5108487;27;20230;-84
2023/07/10 05:57:23;;;;;;;18.58;7.30;;;;;;;-143.21;67.66;72002.78;5110694;27;20556;-83
2023/07/10 05:59:50;;;;;;;10.38;6.38;;;;;;;-143.21;66.43;72002.78;5109964;27;20203;-85
2023/07/10 06:02:17;;;;;;;17.67;10.25;;;;;;;-143.21;66.77;71994.84;5110067;27;20203;-83
2023/07/10 06:04:44;;;;;;;15.98;8.40;;;;;;;-143.21;67.44;71986.91;5108385;28;20212;-81
2023/07/10 06:07:11;;;;;;;11.55;6.63;;;;;;;-143.21;67.06;71969.06;5108501;28;20227;-84
2023/07/10 06:09:39;;;;;;;13.07;6.65;;;;;;;-143.21;66.58;71965.09;5109678;27;20284;-82
2023/07/10 06:12:08;;;;;;;9.45;5.55;;;;;;;-143.21;65.90;71951.22;5108450;28;20203;-83
2023/07/10 06:14:38;;;;;;;14.90;6.53;;;;;;;-143.21;64.49;71939.31;5109542;28;20200;-85
2023/07/10 06:17:05;;;;;;;9.35;5.97;;;;;;;-143.21;64.86;71929.41;5110113;27;20592;-87
2023/07/10 06:19:32;;;;;;;12.02;5.78;;;;;;;-143.21;64.99;71927.44;5105357;27;20243;-81
2023/07/10 06:22:07;;;;;;;15.40;6.80;;;;;;;-143.21;65.21;71915.53;5107443;27;20199;-81
2023/07/10 06:24:34;;;;;;;12.15;6.25;;;;;;;-143.21;65.43;71913.53;5107034;27;20195;-80
2023/07/10 06:27:03;;;;;;;14.05;6.32;;;;;;;-143.21;64.96;71897.69;5105336;28;20203;-81
2023/07/10 06:29:31;;;;;;;11.35;6.20;;;;;;;-143.21;63.41;71883.81;5102338;28;20204;-82
2023/07/10 06:31:58;;;;;;;7.97;5.55;;;;;;;-143.21;61.65;71867.94;5103823;28;20651;-79
2023/07/10 06:34:25;;;;;;;9.55;5.40;;;;;;;-143.21;61.92;71863.97;5105845;28;20207;-79
2023/07/10 06:36:52;;;;;;;8.93;5.35;;;;;;;-143.21;62.07;71860.00;5107300;28;20725;-88
2023/07/10 06:39:19;;;;;;;10.40;5.65;;;;;;;-143.21;62.45;71862.00;5107299;28;20214;-90
2023/07/10 06:41:46;;;;;;;11.60;5.88;;;;;;;-143.21;63.07;71846.13;5108418;28;20208;-90
2023/07/10 06:44:16;;;;;;;9.55;5.43;;;;;;;-143.21;62.29;71834.22;5095747;28;20613;-91
2023/07/10 06:46:43;;;;;;;11.07;5.57;;;;;;;-143.21;62.06;71820.34;5108545;28;20212;-87
2023/07/10 06:49:10;;;;;;;10.30;6.05;;;;;;;-143.21;61.50;71808.44;5112681;28;20200;-91
2023/07/10 06:51:36;;;;;;;6.68;5.53;;;;;;;-143.21;61.66;71812.41;5110970;28;20206;-89
2023/07/10 06:54:04;;;;;;;10.07;5.97;;;;;;;-143.21;61.88;71810.44;5100444;28;20195;-91
2023/07/10 06:56:31;;;;;;;11.80;5.57;;;;;;;-143.21;60.69;71794.56;5117419;28;20230;-90
2023/07/10 06:58:59;;;;;;;15.15;5.95;;;;;;;-143.21;60.63;71786.63;5115027;28;20208;-92
2023/07/10 07:01:28;;;;;;;10.75;5.63;;;;;;;-143.21;61.23;71794.56;5115804;28;20596;-91
2023/07/10 07:03:55;;;;;;;11.15;5.97;;;;;;;-143.21;60.88;71794.56;5113370;28;20196;-91
2023/07/10 07:06:22;;;;;;;10.82;5.20;;;;;;;-143.21;59.45;71796.56;5115729;28;20299;-91
2023/07/10 07:08:52;;;;;;;6.32;4.88;;;;;;;-143.21;59.51;71784.66;5119391;28;20211;-91
2023/07/10 07:11:20;;;;;;;6.32;5.10;;;;;;;-143.21;60.18;71760.88;5123987;28;20578;-91
2023/07/10 07:13:47;;;;;;;9.00;5.80;;;;;;;-143.21;60.26;71741.03;5115493;28;20291;-92
2023/07/10 07:16:14;;;;;;;8.43;5.13;;;;;;;-143.21;58.19;71746.97;5113959;28;20220;-91
2023/07/10 07:18:43;;;;;;;11.18;5.15;;;;;;;-143.21;57.43;71741.03;5106794;28;20642;-84
2023/07/10 07:21:13;;;;;;;11.32;5.97;;;;;;;-143.21;57.82;71733.09;5107038;28;20204;-83
2023/07/10 07:23:40;;;;;;;8.35;5.20;;;;;;;-143.21;57.84;71717.25;5106230;28;20204;-81
2023/07/10 07:26:07;;;;;;;8.60;5.50;;;;;;;-143.21;57.78;71715.25;5107890;28;20200;-83
2023/07/10 07:28:35;;;;;;;9.88;5.45;;;;;;;-143.21;57.71;71695.44;5108543;28;20253;-83
2023/07/10 07:31:03;;;;;;;7.10;5.70;;;;;;;-143.21;56.91;71681.56;5108528;28;20239;-81
2023/07/10 07:33:30;;;;;;;13.95;5.90;;;;;;;-143.21;56.69;71673.63;5106006;28;20207;-88
2023/07/10 07:36:00;;;;;;;11.70;5.28;;;;;;;-143.21;55.93;71675.59;5111335;28;20219;-88
2023/07/10 07:38:28;;;;;;;5.70;5.00;;;;;;;-143.21;55.64;71671.63;5130377;28;20231;-94
2023/07/10 07:40:58;;;;;;;6.57;4.93;;;;;;;-143.21;56.87;71649.81;5121534;27;20223;-93
2023/07/10 07:43:25;;;;;;;11.82;5.03;;;;;;;-143.21;55.74;71639.91;5118251;28;20200;-95
2023/07/10 07:45:56;;;;;;;8.50;4.72;;;;;;;-143.21;55.96;71630.00;5128922;27;20214;-94
2023/07/10 07:48:24;;;;;;;8.10;5.03;;;;;;;-143.21;55.19;71618.09;5123586;27;20639;-92
2023/07/10 07:51:01;;;;;;;8.30;5.28;;;;;;;-143.21;55.01;71614.13;5135746;27;20250;-91
2023/07/10 07:53:30;;;;;;;6.22;4.47;;;;;;;-143.21;55.16;71602.25;5121873;27;20191;-91
2023/07/10 07:55:57;;;;;;;6.82;4.60;;;;;;;-143.21;54.93;71606.22;5116368;28;20211;-92
2023/07/10 07:58:25;;;;;;;8.55;4.75;;;;;;;-143.21;54.72;71604.22;5136756;27;20203;-92
2023/07/10 08:00:52;;;;;;;10.07;4.45;;;;;;;-143.21;54.55;71588.38;5144748;27;20278;-92
2023/07/10 08:03:19;;;;;;;8.10;4.80;;;;;;;-143.21;54.76;71576.47;5135654;27;20223;-92
2023/07/10 08:05:46;;;;;;;8.05;5.25;;;;;;;-143.21;54.13;71578.44;5135559;27;20198;-91
2023/07/10 08:08:14;;;;;;;9.40;4.35;;;;;;;-143.21;55.07;71580.44;5117433;27;20556;-92
2023/07/10 08:10:43;;;;;;;5.45;4.70;;;;;;;-143.21;53.51;71574.47;5115192;28;20199;-91
2023/07/10 08:13:11;;;;;;;7.93;4.70;;;;;;;-143.21;55.87;71556.63;5115994;28;20200;-93
2023/07/10 08:15:39;;;;;;;5.47;4.60;;;;;;;-143.21;55.67;71530.88;5114825;28;20710;-93
2023/07/10 08:18:06;;;;;;;6.18;4.63;;;;;;;-143.21;54.56;71507.06;5115371;28;20223;-93
2023/07/10 08:20:34;;;;;;;6.20;4.20;;;;;;;-143.21;54.14;71491.22;5115259;28;20272;-93
2023/07/10 08:23:02;;;;;;;7.28;4.35;;;;;;;-143.21;54.02;71481.28;5116148;28;20208;-93
2023/07/10 08:25:30;;;;;;;6.57;4.13;;;;;;;-143.21;54.42;71457.50;5129923;27;20195;-93
2023/07/10 08:27:58;;;;;;;7.78;4.55;;;;;;;-143.21;52.98;71447.59;5135463;27;20199;-93
2023/07/10 08:30:26;;;;;;;5.82;4.60;;;;;;;-143.21;52.48;71437.69;5135515;27;20187;-92
2023/07/10 08:32:53;;;;;;;7.60;4.80;;;;;;;-143.21;52.26;71431.72;5134734;27;20187;-92
2023/07/10 08:35:21;;;;;;;5.85;4.60;;;;;;;-143.21;51.65;71423.78;5134711;27;20242;-89
2023/07/10 08:37:50;;;;;;;6.30;4.93;;;;;;;-143.21;50.75;71419.84;5134259;27;20234;-93
2023/07/10 08:40:23;;;;;;;9.60;4.70;;;;;;;-143.21;50.83;71415.88;5123959;27;20285;-89
2023/07/10 08:42:52;;;;;;;6.38;4.22;;;;;;;-143.21;50.63;71423.78;5117304;27;20199;-91
2023/07/10 08:45:29;;;;;;;4.97;4.30;;;;;;;-143.21;50.39;71443.63;5122604;27;20291;-92
2023/07/10 08:48:09;;;;;;;6.32;4.63;;;;;;;-143.21;50.31;71449.56;5114400;28;20199;-91
2023/07/10 08:50:41;;;;;;;13.05;4.70;;;;;;;-143.21;51.77;71447.59;5132143;27;20286;-90
2023/07/10 08:53:12;;;;;;;6.18;4.70;;;;;;;-143.21;49.79;71445.59;5128247;27;20196;-91
2023/07/10 08:55:49;;;;;;;8.52;4.80;;;;;;;-143.21;49.37;71431.72;5116919;27;20231;-91
2023/07/10 08:58:21;;;;;;;4.90;4.40;;;;;;;-143.21;50.17;71419.84;5134455;27;20195;-92
2023/07/10 09:00:51;;;;;;;11.57;4.80;;;;;;;-143.21;50.48;71407.94;5129270;27;20671;-92
2023/07/10 09:03:35;;;;;;;7.30;5.13;;;;;;;-143.21;49.60;71392.06;5119126;28;20279;-91
2023/07/10 09:06:04;;;;;;;9.15;5.32;;;;;;;-143.21;49.21;71384.16;5114631;28;20196;-90
2023/07/10 09:08:33;;;;;;;8.15;4.50;;;;;;;-143.21;47.94;71372.25;5114751;27;20207;-91
2023/07/10 09:11:02;;;;;;;4.70;4.20;;;;;;;-143.21;48.15;71352.44;5129608;27;20210;-91
2023/07/10 09:13:48;;;;;;;5.68;4.45;;;;;;;-143.21;48.13;71342.50;5116021;28;20211;-90
2023/07/10 09:16:17;;;;;;;8.05;4.60;;;;;;;-143.21;48.18;71336.56;5114353;28;20216;-91
2023/07/10 09:18:49;;;;;;;5.30;4.10;;;;;;;-143.21;49.19;71320.69;5133756;27;20818;-91
2023/07/10 09:21:19;;;;;;;7.97;4.90;;;;;;;-143.21;47.96;71318.72;5134600;27;20210;-90
2023/07/10 09:23:47;;;;;;;8.85;5.07;;;;;;;-143.21;48.13;71346.47;5130894;27;20223;-81
2023/07/10 09:26:18;;;;;;;5.20;4.15;;;;;;;-143.21;47.28;71352.44;5130370;27;20195;-84
2023/07/10 09:28:58;;;;;;;8.48;4.28;;;;;;;-143.21;47.16;71358.38;5121757;27;20208;-91
2023/07/10 09:31:38;;;;;;;5.75;4.20;;;;;;;-143.21;47.23;71364.31;5121118;27;20210;-91
2023/07/10 09:34:05;;;;;;;8.98;4.35;;;;;;;-143.21;46.45;71366.31;5134101;27;20199;-92
2023/07/10 09:36:31;;;;;;;6.88;4.20;;;;;;;-143.21;47.24;71344.50;5115298;27;20231;-91
2023/07/10 09:39:00;;;;;;;7.32;3.80;;;;;;;-143.21;47.23;71306.81;5115671;27;20214;-91
2023/07/10 09:41:29;;;;;;;5.75;3.80;;;;;;;-143.21;44.45;71283.03;5133001;27;20214;-91
2023/07/10 09:43:59;;;;;;;4.72;4.22;;;;;;;-143.21;43.41;71267.19;5121097;27;20207;-91
2023/07/10 09:46:29;;;;;;;6.95;4.15;;;;;;;-143.21;43.04;71261.22;5113175;28;20774;-92
2023/07/10 09:48:58;;;;;;;5.85;4.10;;;;;;;-143.21;43.40;71259.25;5112548;28;20203;-92
2023/07/10 09:51:25;;;;;;;4.85;3.97;;;;;;;-143.21;45.33;71245.38;5112375;27;20223;-92
2023/07/10 09:53:59;;;;;;;4.30;3.90;;;;;;;-143.21;44.86;71231.50;5113289;27;20307;-92
2023/07/10 09:56:32;;;;;;;5.00;3.88;;;;;;;-143.21;41.54;71225.53;5112392;28;20382;-91
2023/07/10 09:59:00;;;;;;;6.88;3.92;;;;;;;-143.21;42.05;71231.50;5124020;27;20218;-92
2023/07/10 10:01:29;;;;;;;4.40;3.90;;;;;;;-143.21;41.92;71217.59;5112389;28;20211;-91
2023/07/10 10:03:56;;;;;;;5.10;3.95;;;;;;;-143.21;43.26;71195.81;5112225;28;20287;-92
2023/07/10 10:06:26;;;;;;;6.35;4.68;;;;;;;-143.21;41.69;71175.97;5117218;27;20261;-92
2023/07/10 10:08:54;;;;;;;5.20;3.83;;;;;;;-143.21;41.09;71160.13;5119822;27;20221;-92
2023/07/10 10:11:35;;;;;;;7.22;4.40;;;;;;;-143.21;42.23;71146.25;5113071;28;20210;-92
2023/07/10 10:14:11;;;;;;;11.32;4.72;;;;;;;-143.21;40.75;71118.50;5123802;27;20195;-92
2023/07/10 10:16:43;;;;;;;7.90;4.85;;;;;;;-143.21;41.20;71096.69;5128505;27;20271;-92
2023/07/10 10:19:17;;;;;;;8.82;4.22;;;;;;;-143.21;40.25;71092.72;5123553;27;20670;-91
2023/07/10 10:21:44;;;;;;;8.07;4.38;;;;;;;-143.21;40.24;71102.63;5131472;27;20681;-91
2023/07/10 10:24:13;;;;;;;9.65;4.57;;;;;;;-143.21;39.60;71090.72;5115750;27;20196;-92
2023/07/10 10:26:55;;;;;;;6.90;4.35;;;;;;;-143.21;40.81;71084.78;5113130;28;20288;-91
2023/07/10 10:29:48;;;;;;;9.88;4.15;;;;;;;-143.21;40.65;71068.94;5096279;28;20199;-92
2023/07/10 10:32:25;;;;;;;4.78;4.25;;;;;;;-143.21;37.55;71059.00;5120480;27;20212;-90
2023/07/10 10:35:01;;;;;;;4.53;4.13;;;;;;;-143.21;38.56;71035.22;5132693;27;20233;-90
2023/07/10 10:37:40;;;;;;;8.57;4.25;;;;;;;-143.21;38.95;71039.19;5133289;28;20239;-90
2023/07/10 10:40:20;;;;;;;7.70;4.57;;;;;;;-143.21;39.38;71043.16;5116030;28;20198;-90
2023/07/10 10:42:53;;;;;;;6.35;4.22;;;;;;;-143.21;38.02;71035.22;5122661;28;20195;-91
2023/07/10 10:45:28;;;;;;;11.30;4.50;;;;;;;-143.21;38.36;71033.25;5112190;28;20981;-93
2023/07/10 10:48:10;;;;;;;6.30;4.25;;;;;;;-143.21;38.13;71021.34;5113449;28;20227;-91
2023/07/10 10:50:49;;;;;;;4.75;4.07;;;;;;;-143.21;38.23;70995.56;5112726;28;20180;-92
2023/07/10 10:53:35;;;;;;;7.15;4.78;;;;;;;-143.21;38.24;70975.75;5112507;28;20195;-92
2023/07/10 10:56:19;;;;;;;6.90;4.28;;;;;;;-143.21;38.05;70977.72;5126022;28;20921;-92
2023/07/10 10:58:56;;;;;;;8.95;4.53;;;;;;;-143.21;38.49;70955.94;5117019;28;20557;-92
2023/07/10 11:01:34;;;;;;;6.13;4.50;;;;;;;-143.21;37.63;70928.19;5130200;28;20306;-91
2023/07/10 11:04:11;;;;;;;9.50;3.80;;;;;;;-143.21;37.26;70908.34;5124491;28;20609;-92
2023/07/10 11:06:47;;;;;;;10.63;4.45;;;;;;;-143.21;38.00;70876.63;5115607;28;20203;-93
2023/07/10 11:09:18;;;;;;;7.22;4.00;;;;;;;-143.21;35.57;70852.84;5123948;28;20202;-93
2023/07/10 11:11:45;;;;;;;5.03;3.85;;;;;;;-143.21;35.69;70831.03;5121554;28;20650;-94
2023/07/10 11:14:13;;;;;;;6.07;3.65;;;;;;;-143.21;36.52;70817.16;5134783;27;20199;-91
2023/07/10 11:16:42;;;;;;;9.32;4.32;;;;;;;-143.21;36.31;70801.31;5136315;27;20741;-94
2023/07/10 11:19:15;;;;;;;8.50;3.90;;;;;;;-143.21;34.79;70797.34;5137202;27;20225;-94
2023/07/10 11:21:42;;;;;;;4.22;3.83;;;;;;;-143.21;35.40;70775.53;5136049;27;20502;-83
2023/07/10 11:24:28;;;;;;;8.30;4.22;;;;;;;-143.21;34.74;70777.53;5119176;27;20196;-92